createdAt,value
2023-05-10T02:46:34.310Z,4.90
2023-05-10T02:47:33.231Z,5.90
2023-05-10T02:48:34.118Z,5.70
2023-05-10T02:49:35.068Z,6.70
2023-05-10T02:50:36.016Z,6.70
2023-05-10T02:51:37.002Z,6.60
2023-05-10T02:52:37.920Z,6.30
2023-05-10T02:53:38.825Z,7.10
2023-05-10T02:54:39.807Z,6.20
2023-05-10T02:55:40.702Z,6.80
2023-05-10T02:56:41.615Z,7.70
2023-05-10T02:57:42.551Z,7.80
2023-05-10T02:58:43.595Z,8.10
2023-05-10T02:59:44.029Z,8.20
2023-05-10T03:00:44.964Z,8.80
2023-05-10T03:01:45.886Z,9.10
2023-05-10T03:02:46.838Z,8.60
2023-05-10T03:03:47.778Z,9.40
2023-05-10T03:04:48.767Z,8.80
2023-05-10T03:05:49.669Z,8.00
2023-05-10T03:06:50.621Z,9.00
2023-05-10T03:07:51.575Z,9.70
2023-05-10T03:08:52.507Z,9.10
2023-05-10T03:09:53.403Z,8.20
2023-05-10T03:10:54.318Z,8.20
2023-05-10T03:11:55.276Z,8.90
2023-05-10T03:12:56.245Z,9.70
2023-05-10T03:13:57.156Z,9.30
2023-05-10T03:14:58.196Z,9.60
2023-05-10T03:15:58.618Z,9.30
2023-05-10T03:16:59.557Z,10.60
2023-05-10T03:18:00.530Z,10.60
2023-05-10T03:19:00.943Z,10.40
2023-05-10T03:20:01.862Z,10.40
2023-05-10T03:21:02.854Z,10.10
2023-05-10T03:22:03.744Z,11.70
2023-05-10T03:23:04.743Z,10.30
2023-05-10T03:24:05.663Z,10.40
2023-05-10T03:25:06.569Z,10.00
2023-05-10T03:26:07.531Z,9.80
2023-05-10T03:27:08.520Z,9.90
2023-05-10T03:28:09.440Z,10.80
2023-05-10T03:29:10.331Z,11.10
2023-05-10T03:30:11.259Z,9.70
2023-05-10T03:31:12.226Z,9.60
2023-05-10T03:32:12.766Z,10.00
2023-05-10T03:33:13.692Z,9.40
2023-05-10T03:34:14.642Z,9.50
2023-05-10T03:35:15.555Z,10.90
2023-05-10T03:36:16.490Z,9.40
2023-05-10T03:37:17.502Z,9.80
2023-05-10T03:38:18.397Z,9.10
2023-05-10T03:39:19.311Z,10.30
2023-05-10T03:40:20.256Z,10.70
2023-05-10T03:41:21.209Z,10.10
2023-05-10T03:42:21.650Z,9.40
2023-05-10T03:43:22.621Z,9.70
2023-05-10T03:44:23.551Z,16.20
2023-05-10T03:45:24.071Z,31.90
2023-05-10T03:46:25.077Z,91.10
2023-05-10T03:47:25.566Z,142.20
2023-05-10T03:48:26.478Z,11.70
2023-05-10T03:49:27.398Z,9.80
2023-05-10T03:50:28.330Z,9.30
2023-05-10T03:51:29.419Z,10.30
2023-05-10T03:52:30.126Z,10.40
2023-05-10T03:53:31.024Z,10.60
2023-05-10T03:54:31.953Z,11.30
2023-05-10T03:55:32.880Z,10.20
2023-05-10T03:56:33.790Z,10.50
2023-05-10T03:57:34.670Z,9.60
2023-05-10T03:58:35.555Z,10.60
2023-05-10T03:59:36.539Z,11.60
2023-05-10T04:00:37.466Z,11.10
2023-05-10T04:01:38.443Z,10.50
2023-05-10T04:02:39.522Z,10.60
2023-05-10T04:03:40.092Z,11.60
2023-05-10T04:04:40.504Z,11.70
2023-05-10T04:05:41.395Z,11.00
2023-05-10T04:06:42.375Z,11.90
2023-05-10T04:07:43.248Z,11.70
2023-05-10T04:08:44.161Z,11.20
2023-05-10T04:09:45.096Z,11.40
2023-05-10T04:10:46.027Z,11.90
2023-05-10T04:11:46.923Z,11.80
2023-05-10T04:12:47.836Z,12.50
2023-05-10T04:13:48.732Z,10.90
2023-05-10T04:14:49.636Z,13.70
2023-05-10T04:15:50.516Z,11.70
2023-05-10T04:16:51.423Z,11.30
2023-05-10T04:17:52.438Z,12.00
2023-05-10T04:18:52.831Z,14.00
2023-05-10T04:19:53.725Z,10.60
2023-05-10T04:20:54.633Z,12.10
2023-05-10T04:21:55.515Z,11.60
2023-05-10T04:22:56.418Z,12.00
2023-05-10T04:23:57.308Z,10.60
2023-05-10T04:24:58.203Z,11.40
2023-05-10T04:25:59.109Z,12.40
2023-05-10T04:27:00.017Z,13.20
2023-05-10T04:28:00.991Z,11.10
2023-05-10T04:29:01.452Z,10.50
2023-05-10T04:30:02.395Z,11.90
2023-05-10T04:31:03.484Z,12.00
2023-05-10T04:32:03.931Z,11.50
2023-05-10T04:33:05.009Z,12.00
2023-05-10T04:34:05.391Z,12.20
2023-05-10T04:35:06.298Z,12.60
2023-05-10T04:36:07.173Z,11.00
2023-05-10T04:37:08.093Z,11.40
2023-05-10T04:38:08.989Z,11.20
2023-05-10T04:39:09.864Z,11.80
2023-05-10T04:40:10.769Z,11.80
2023-05-10T04:41:11.695Z,12.00
2023-05-10T04:42:12.575Z,11.80
2023-05-10T04:43:13.460Z,12.60
2023-05-10T04:44:14.345Z,12.50
2023-05-10T04:45:15.254Z,13.70
2023-05-10T04:46:16.175Z,13.20
2023-05-10T04:47:17.038Z,12.50
2023-05-10T04:48:17.953Z,12.10
2023-05-10T04:49:18.836Z,11.60
2023-05-10T04:50:19.707Z,13.10
2023-05-10T04:51:20.634Z,14.30
2023-05-10T04:52:21.550Z,14.30
2023-05-10T04:53:22.412Z,13.10
2023-05-10T04:54:23.295Z,12.60
2023-05-10T04:55:24.240Z,11.80
2023-05-10T04:56:25.133Z,14.50
2023-05-10T04:57:26.032Z,12.50
2023-05-10T04:58:26.905Z,12.30
2023-05-10T04:59:27.783Z,12.20
2023-05-10T05:00:28.719Z,13.30
2023-05-10T05:01:29.666Z,12.60
2023-05-10T05:02:30.625Z,14.00
2023-05-10T05:03:31.218Z,13.20
2023-05-10T05:04:31.705Z,13.10
2023-05-10T05:05:32.651Z,13.10
2023-05-10T05:06:33.528Z,14.40
2023-05-10T05:07:34.406Z,13.20
2023-05-10T05:08:35.320Z,13.00
2023-05-10T05:09:36.230Z,12.30
2023-05-10T05:10:37.103Z,13.40
2023-05-10T05:11:38.001Z,13.10
2023-05-10T05:12:38.906Z,13.60
2023-05-10T05:13:39.789Z,14.20
2023-05-10T05:14:40.691Z,12.90
2023-05-10T05:15:41.588Z,13.70
2023-05-10T05:16:42.536Z,14.10
2023-05-10T05:17:43.482Z,14.10
2023-05-10T05:18:44.386Z,14.00
2023-05-10T05:19:45.265Z,13.90
2023-05-10T05:20:46.158Z,15.70
2023-05-10T05:21:47.053Z,14.50
2023-05-10T05:22:47.971Z,14.30
2023-05-10T05:23:48.871Z,14.20
2023-05-10T05:24:49.748Z,15.00
2023-05-10T05:25:50.630Z,15.90
2023-05-10T05:26:51.518Z,15.10
2023-05-10T05:27:52.410Z,13.90
2023-05-10T05:28:53.304Z,15.70
2023-05-10T05:29:54.202Z,16.40
2023-05-10T05:30:55.078Z,14.40
2023-05-10T05:31:55.996Z,14.70
2023-05-10T05:32:56.966Z,16.20
2023-05-10T05:33:57.869Z,14.80
2023-05-10T05:34:58.765Z,14.10
2023-05-10T05:35:59.690Z,14.70
2023-05-10T05:37:00.597Z,14.70
2023-05-10T05:38:01.476Z,17.40
2023-05-10T05:39:02.360Z,15.40
2023-05-10T05:40:03.253Z,15.40
2023-05-10T05:41:04.178Z,16.60
2023-05-10T05:42:05.116Z,14.80
2023-05-10T05:43:06.048Z,15.30
2023-05-10T05:44:06.906Z,16.40
2023-05-10T05:45:07.828Z,14.70
2023-05-10T05:46:08.736Z,15.00
2023-05-10T05:47:09.573Z,15.40
2023-05-10T05:48:10.528Z,15.00
2023-05-10T05:49:11.428Z,13.90
2023-05-10T05:50:12.315Z,13.50
2023-05-10T05:51:13.157Z,16.20
2023-05-10T05:52:14.108Z,15.20
2023-05-10T05:53:14.685Z,16.70
2023-05-10T05:54:15.591Z,16.70
2023-05-10T05:55:16.706Z,15.60
2023-05-10T05:56:17.285Z,16.10
2023-05-10T05:57:18.194Z,15.50
2023-05-10T05:58:19.123Z,15.90
2023-05-10T05:59:20.020Z,17.10
2023-05-10T06:00:20.914Z,15.90
2023-05-10T06:01:21.836Z,17.80
2023-05-10T06:02:22.788Z,16.40
2023-05-10T06:03:23.778Z,15.70
2023-05-10T06:04:24.208Z,15.30
2023-05-10T06:05:25.080Z,14.90
2023-05-10T06:06:26.019Z,17.60
2023-05-10T06:07:26.892Z,14.90
2023-05-10T06:08:27.791Z,15.20
2023-05-10T06:09:28.656Z,15.70
2023-05-10T06:10:29.560Z,16.60
2023-05-10T06:11:30.463Z,17.10
2023-05-10T06:12:31.351Z,17.20
2023-05-10T06:13:32.331Z,17.50
2023-05-10T06:14:32.755Z,17.60
2023-05-10T06:15:33.679Z,17.10
2023-05-10T06:16:34.596Z,16.90
2023-05-10T06:17:35.524Z,16.10
2023-05-10T06:18:36.382Z,18.80
2023-05-10T06:19:37.319Z,17.70
2023-05-10T06:20:38.205Z,17.90
2023-05-10T06:21:39.126Z,17.50
2023-05-10T06:22:40.011Z,15.70
2023-05-10T06:23:40.887Z,16.00
2023-05-10T06:24:41.809Z,17.70
2023-05-10T06:25:42.696Z,16.60
2023-05-10T06:26:43.573Z,18.10
2023-05-10T06:27:45.740Z,16.80
2023-05-10T06:28:45.430Z,19.20
2023-05-10T06:29:46.360Z,19.20
2023-05-10T06:30:47.241Z,17.10
2023-05-10T06:31:48.170Z,19.20
2023-05-10T06:32:49.082Z,19.10
2023-05-10T06:33:49.970Z,19.10
2023-05-10T06:34:50.977Z,20.60
2023-05-10T06:35:51.422Z,22.90
2023-05-10T06:36:52.378Z,18.90
2023-05-10T06:37:53.291Z,20.50
2023-05-10T06:38:54.253Z,20.90
2023-05-10T06:39:55.128Z,19.60
2023-05-10T06:40:56.089Z,20.80
2023-05-10T06:41:56.935Z,19.30
2023-05-10T06:42:57.858Z,20.70
2023-05-10T06:43:58.765Z,20.70
2023-05-10T06:44:59.635Z,22.60
2023-05-10T06:46:00.587Z,21.40
2023-05-10T06:47:01.442Z,22.70
2023-05-10T06:48:02.422Z,22.60
2023-05-10T06:49:02.843Z,23.00
2023-05-10T06:50:03.753Z,21.10
2023-05-10T06:51:04.632Z,21.90
2023-05-10T06:52:05.538Z,22.60
2023-05-10T06:53:06.439Z,21.60
2023-05-10T06:54:07.325Z,21.60
2023-05-10T06:55:08.224Z,22.50
2023-05-10T06:56:09.118Z,23.10
2023-05-10T06:57:23.324Z,23.40
2023-05-10T06:58:11.803Z,24.20
2023-05-10T06:59:11.717Z,24.10
2023-05-10T07:00:12.637Z,25.70
2023-05-10T07:01:13.648Z,26.90
2023-05-10T07:02:14.202Z,27.20
2023-05-10T07:03:14.732Z,24.90
2023-05-10T07:04:15.651Z,24.90
2023-05-10T07:05:16.831Z,24.50
2023-05-10T07:06:29.546Z,24.50
2023-05-10T07:07:19.187Z,24.80
2023-05-10T07:08:19.086Z,25.20
2023-05-10T07:09:19.961Z,26.00
2023-05-10T07:10:20.863Z,27.80
2023-05-10T07:11:21.781Z,26.30
2023-05-10T07:12:22.678Z,28.00
2023-05-10T07:13:23.675Z,26.90
2023-05-10T07:14:24.087Z,28.70
2023-05-10T07:15:24.972Z,29.20
2023-05-10T07:16:25.957Z,28.00
2023-05-10T07:17:26.989Z,27.40
2023-05-10T07:18:27.504Z,28.50
2023-05-10T07:19:27.905Z,28.00
2023-05-10T07:20:28.812Z,30.70
2023-05-10T07:21:29.866Z,30.10
2023-05-10T07:22:30.292Z,28.20
2023-05-10T07:23:31.167Z,28.90
2023-05-10T07:24:32.066Z,29.70
2023-05-10T07:25:32.995Z,29.10
2023-05-10T07:26:33.859Z,32.00
2023-05-10T07:27:34.754Z,31.10
2023-05-10T07:28:35.631Z,33.10
2023-05-10T07:29:36.555Z,32.60
2023-05-10T07:30:37.480Z,32.10
2023-05-10T07:31:38.438Z,33.60
2023-05-10T07:32:39.389Z,30.10
2023-05-10T07:33:39.809Z,32.70
2023-05-10T07:34:40.728Z,32.10
2023-05-10T07:35:41.630Z,29.80
2023-05-10T07:36:42.539Z,31.70
2023-05-10T07:37:43.388Z,32.70
2023-05-10T07:38:44.293Z,35.70
2023-05-10T07:39:45.232Z,34.00
2023-05-10T07:40:46.112Z,33.00
2023-05-10T07:41:47.005Z,34.80
2023-05-10T07:42:47.901Z,33.90
2023-05-10T07:43:48.811Z,35.40
2023-05-10T07:44:49.871Z,36.90
2023-05-10T07:45:50.312Z,34.10
2023-05-10T07:46:51.178Z,35.80
2023-05-10T07:47:52.154Z,32.30
2023-05-10T07:48:53.043Z,32.80
2023-05-10T07:49:53.956Z,36.20
2023-05-10T07:50:54.862Z,33.30
2023-05-10T07:51:55.730Z,36.80
2023-05-10T07:52:56.613Z,35.60
2023-05-10T07:53:57.537Z,37.50
2023-05-10T07:54:58.427Z,37.60
2023-05-10T07:55:59.383Z,37.10
2023-05-10T07:57:00.295Z,42.50
2023-05-10T07:58:01.242Z,38.00
2023-05-10T07:59:02.168Z,38.90
2023-05-10T08:00:03.027Z,38.10
2023-05-10T08:01:03.925Z,37.10
2023-05-10T08:02:04.830Z,36.00
2023-05-10T08:03:05.842Z,39.60
2023-05-10T08:04:06.364Z,35.70
2023-05-10T08:05:06.752Z,40.30
2023-05-10T08:06:07.676Z,38.20
2023-05-10T08:07:08.550Z,36.30
2023-05-10T08:08:09.495Z,36.10
2023-05-10T08:09:10.392Z,37.90
2023-05-10T08:10:11.307Z,36.80
2023-05-10T08:11:12.219Z,37.10
2023-05-10T08:12:13.118Z,38.20
2023-05-10T08:13:14.060Z,36.60
2023-05-10T08:14:14.940Z,36.10
2023-05-10T08:15:16.099Z,35.70
2023-05-10T08:16:16.706Z,37.60
2023-05-10T08:18:17.698Z,35.50
2023-05-10T08:19:18.544Z,38.80
2023-05-10T08:20:19.438Z,38.60
2023-05-10T08:21:20.354Z,38.10
2023-05-10T08:22:21.247Z,39.90
2023-05-10T08:23:22.141Z,37.60
2023-05-10T08:24:23.042Z,41.60
2023-05-10T08:25:23.908Z,37.30
2023-05-10T08:26:24.850Z,36.00
2023-05-10T08:27:25.715Z,37.30
2023-05-10T08:28:26.606Z,38.70
2023-05-10T08:29:30.400Z,33.70
2023-05-10T08:30:28.428Z,38.10
2023-05-10T08:31:29.520Z,36.30
2023-05-10T08:32:29.923Z,35.60
2023-05-10T08:33:30.837Z,38.70
2023-05-10T08:34:31.693Z,37.00
2023-05-10T08:35:32.605Z,38.90
2023-05-10T08:36:33.608Z,39.90
2023-05-10T08:37:34.456Z,38.00
2023-05-10T08:38:35.367Z,39.90
2023-05-10T08:39:36.276Z,35.70
2023-05-10T08:40:37.164Z,35.80
2023-05-10T08:41:38.059Z,34.70
2023-05-10T08:42:38.991Z,37.40
2023-05-10T08:43:39.872Z,36.20
2023-05-10T08:44:40.776Z,37.30
2023-05-10T08:45:41.745Z,35.30
2023-05-10T08:46:42.660Z,35.10
2023-05-10T08:47:43.587Z,33.90
2023-05-10T08:48:44.450Z,31.70
2023-05-10T08:49:45.363Z,34.40
2023-05-10T08:50:46.257Z,30.20
2023-05-10T08:51:47.173Z,34.40
2023-05-10T08:52:48.054Z,33.90
2023-05-10T08:53:48.944Z,31.10
2023-05-10T08:54:49.841Z,30.90
2023-05-10T08:55:50.730Z,33.60
2023-05-10T08:56:51.621Z,33.10
2023-05-10T08:57:52.503Z,32.10
2023-05-10T08:58:53.437Z,27.90
2023-05-10T08:59:54.346Z,29.00
2023-05-10T09:00:55.288Z,30.30
2023-05-10T09:01:56.128Z,28.20
2023-05-10T09:02:57.082Z,30.10
2023-05-10T09:03:58.060Z,29.80
2023-05-10T09:04:59.076Z,29.50
2023-05-10T09:05:59.470Z,27.30
2023-05-10T09:07:00.375Z,28.30
2023-05-10T09:08:01.262Z,28.20
2023-05-10T09:09:02.165Z,28.70
2023-05-10T09:10:03.041Z,28.40
2023-05-10T09:11:03.917Z,28.80
2023-05-10T09:12:04.808Z,28.40
2023-05-10T09:13:05.713Z,27.20
2023-05-10T09:14:06.643Z,26.60
2023-05-10T09:15:07.517Z,27.90
2023-05-10T09:16:20.451Z,29.90
2023-05-10T09:17:10.210Z,25.10
2023-05-10T09:18:10.209Z,28.00
2023-05-10T09:19:10.680Z,29.10
2023-05-10T09:20:11.544Z,25.50
2023-05-10T09:21:12.434Z,26.90
2023-05-10T09:22:13.335Z,28.80
2023-05-10T09:23:14.223Z,26.90
2023-05-10T09:24:15.109Z,25.70
2023-05-10T09:25:16.291Z,25.30
2023-05-10T09:26:16.887Z,27.50
2023-05-10T09:27:17.796Z,27.10
2023-05-10T09:28:18.713Z,28.50
2023-05-10T09:29:19.594Z,29.60
2023-05-10T09:30:20.483Z,29.20
2023-05-10T09:31:21.745Z,30.00
2023-05-10T09:32:22.212Z,28.80
2023-05-10T09:33:23.084Z,28.40
2023-05-10T09:34:23.995Z,30.00
2023-05-10T09:35:25.963Z,30.70
2023-05-10T09:36:25.783Z,29.00
2023-05-10T09:37:26.697Z,30.70
2023-05-10T09:38:27.565Z,31.40
2023-05-10T09:39:28.450Z,30.40
2023-05-10T09:40:29.354Z,28.20
2023-05-10T09:41:30.255Z,29.20
2023-05-10T09:42:31.132Z,31.10
2023-05-10T09:43:32.027Z,28.90
2023-05-10T09:44:32.919Z,28.80
2023-05-10T09:45:35.535Z,29.60
2023-05-10T09:46:34.545Z,28.70
2023-05-10T09:47:35.013Z,27.10
2023-05-10T09:48:35.861Z,29.20
2023-05-10T09:49:36.747Z,27.30
2023-05-10T09:50:37.730Z,28.00
2023-05-10T09:51:38.600Z,27.40
2023-05-10T09:52:39.504Z,30.80
2023-05-10T09:53:40.378Z,27.10
2023-05-10T09:54:41.259Z,29.40
2023-05-10T09:55:42.177Z,28.20
2023-05-10T09:56:43.057Z,31.40
2023-05-10T09:57:44.070Z,25.60
2023-05-10T09:58:44.428Z,26.60
2023-05-10T09:59:45.374Z,27.80
2023-05-10T10:00:46.277Z,26.00
2023-05-10T10:01:47.231Z,25.60
2023-05-10T10:02:48.093Z,33.40
2023-05-10T10:03:48.975Z,27.40
2023-05-10T10:04:50.122Z,26.20
2023-05-10T10:05:50.586Z,26.00
2023-05-10T10:06:51.455Z,28.10
2023-05-10T10:07:52.358Z,27.60
2023-05-10T10:08:55.622Z,27.20
2023-05-10T10:09:54.014Z,26.40
2023-05-10T10:10:54.903Z,25.40
2023-05-10T10:11:55.805Z,26.40
2023-05-10T10:12:56.669Z,26.30
2023-05-10T10:13:57.577Z,25.00
2023-05-10T10:14:58.486Z,25.60
2023-05-10T10:15:59.411Z,25.50
2023-05-10T10:17:08.000Z,25.30
2023-05-10T10:18:02.095Z,24.70
2023-05-10T10:19:02.047Z,27.40
2023-05-10T10:20:02.910Z,27.30
2023-05-10T10:21:03.814Z,24.80
2023-05-10T10:22:04.688Z,26.70
2023-05-10T10:23:05.619Z,28.20
2023-05-10T10:24:06.517Z,23.60
2023-05-10T10:25:07.433Z,23.90
2023-05-10T10:26:08.290Z,22.70
2023-05-10T10:27:09.185Z,23.20
2023-05-10T10:28:10.390Z,24.20
2023-05-10T10:29:10.767Z,21.70
2023-05-10T10:30:11.684Z,22.40
2023-05-10T10:31:12.601Z,22.70
2023-05-10T10:32:13.469Z,22.40
2023-05-10T10:33:27.184Z,23.60
2023-05-10T10:34:16.145Z,22.70
2023-05-10T10:35:16.165Z,24.10
2023-05-10T10:36:16.628Z,23.80
2023-05-10T10:37:17.569Z,23.80
2023-05-10T10:38:18.466Z,23.90
2023-05-10T10:39:19.340Z,22.90
2023-05-10T10:40:20.221Z,21.60
2023-05-10T10:41:21.102Z,24.70
2023-05-10T10:42:22.023Z,21.00
2023-05-10T10:43:22.912Z,23.20
2023-05-10T10:44:23.820Z,24.20
2023-05-10T10:45:24.689Z,23.30
2023-05-10T10:46:25.600Z,22.70
2023-05-10T10:47:26.508Z,22.80
2023-05-10T10:48:27.395Z,23.60
2023-05-10T10:49:28.280Z,24.30
2023-05-10T10:50:29.156Z,22.50
2023-05-10T10:51:30.070Z,23.40
2023-05-10T10:52:31.054Z,22.70
2023-05-10T10:53:31.550Z,22.00
2023-05-10T10:54:32.464Z,22.30
2023-05-10T10:55:33.346Z,22.60
2023-05-10T10:56:36.425Z,20.80
2023-05-10T10:57:34.887Z,20.90
2023-05-10T10:58:35.773Z,22.60
2023-05-10T10:59:36.672Z,21.70
2023-05-10T11:00:37.904Z,21.10
2023-05-10T11:01:38.610Z,21.30
2023-05-10T11:02:39.162Z,22.70
2023-05-10T11:03:40.056Z,21.80
2023-05-10T11:04:41.082Z,20.30
2023-05-10T11:05:41.576Z,21.20
2023-05-10T11:06:42.474Z,21.20
2023-05-10T11:07:43.346Z,19.60
2023-05-10T11:08:44.264Z,25.10
2023-05-10T11:09:45.155Z,22.20
2023-05-10T11:10:46.067Z,23.10
2023-05-10T11:11:46.959Z,21.30
2023-05-10T11:12:47.861Z,24.50
2023-05-10T11:13:50.817Z,21.30
2023-05-10T11:14:49.353Z,20.40
2023-05-10T11:15:50.233Z,21.50
2023-05-10T11:16:51.202Z,20.30
2023-05-10T11:17:52.147Z,20.60
2023-05-10T11:18:53.052Z,19.90
2023-05-10T11:19:53.944Z,21.60
2023-05-10T11:20:54.830Z,21.70
2023-05-10T11:21:55.721Z,21.10
2023-05-10T11:22:56.607Z,21.30
2023-05-10T11:23:57.575Z,19.40
2023-05-10T11:24:58.427Z,21.00
2023-05-10T11:25:59.306Z,19.90
2023-05-10T11:27:00.194Z,19.00
2023-05-10T11:28:01.093Z,20.70
2023-05-10T11:29:02.003Z,20.80
2023-05-10T11:30:04.879Z,19.20
2023-05-10T11:31:03.543Z,18.40
2023-05-10T11:32:03.908Z,19.00
2023-05-10T11:33:04.860Z,18.80
2023-05-10T11:34:05.736Z,17.20
2023-05-10T11:35:06.633Z,17.30
2023-05-10T11:36:07.521Z,16.00
2023-05-10T11:37:08.401Z,16.30
2023-05-10T11:38:09.431Z,17.90
2023-05-10T11:39:09.821Z,19.10
2023-05-10T11:40:10.725Z,17.00
2023-05-10T11:41:11.624Z,19.30
2023-05-10T11:42:12.566Z,16.40
2023-05-10T11:43:13.485Z,15.70
2023-05-10T11:44:14.373Z,16.70
2023-05-10T11:45:15.250Z,14.50
2023-05-10T11:46:16.228Z,14.20
2023-05-10T11:47:17.125Z,17.40
2023-05-10T11:48:18.006Z,19.40
2023-05-10T11:49:18.907Z,19.50
2023-05-10T11:50:19.984Z,16.20
2023-05-10T11:51:20.509Z,17.90
2023-05-10T11:52:21.441Z,19.10
2023-05-10T11:53:23.750Z,17.20
2023-05-10T11:54:23.130Z,17.70
2023-05-10T11:55:24.005Z,15.90
2023-05-10T11:56:24.925Z,15.00
2023-05-10T11:57:25.806Z,18.10
2023-05-10T11:58:26.694Z,16.10
2023-05-10T11:59:27.578Z,18.20
2023-05-10T12:00:28.474Z,18.10
2023-05-10T12:01:29.403Z,16.40
2023-05-10T12:02:30.365Z,15.70
2023-05-10T12:03:30.891Z,18.10
2023-05-10T12:04:31.345Z,21.20
2023-05-10T12:05:31.792Z,18.60
2023-05-10T12:06:32.916Z,19.10
2023-05-10T12:07:33.358Z,19.00
2023-05-10T12:08:34.239Z,18.70
2023-05-10T12:09:43.291Z,17.30
2023-05-10T12:10:36.926Z,18.00
2023-05-10T12:11:36.821Z,17.10
2023-05-10T12:12:37.726Z,17.90
2023-05-10T12:13:38.617Z,19.00
2023-05-10T12:14:39.494Z,18.60
2023-05-10T12:15:40.430Z,18.10
2023-05-10T12:16:41.422Z,17.80
2023-05-10T12:17:43.337Z,18.30
2023-05-10T12:18:42.999Z,18.10
2023-05-10T12:19:43.456Z,18.20
2023-05-10T12:20:43.833Z,18.90
2023-05-10T12:21:44.728Z,19.70
2023-05-10T12:22:45.754Z,19.90
2023-05-10T12:23:46.629Z,18.30
2023-05-10T12:24:47.809Z,18.40
2023-05-10T12:25:48.608Z,17.40
2023-05-10T12:26:49.094Z,19.00
2023-05-10T12:27:49.962Z,18.50
2023-05-10T12:28:50.839Z,18.70
2023-05-10T12:29:51.751Z,16.50
2023-05-10T12:30:52.650Z,19.20
2023-05-10T12:31:53.568Z,18.90
2023-05-10T12:32:54.518Z,18.10
2023-05-10T12:33:55.422Z,17.90
2023-05-10T12:34:56.343Z,19.10
2023-05-10T12:35:57.235Z,19.20
2023-05-10T12:36:58.138Z,18.40
2023-05-10T12:37:59.019Z,20.50
2023-05-10T12:38:59.929Z,20.20
2023-05-10T12:40:00.908Z,18.60
2023-05-10T12:41:01.817Z,17.70
2023-05-10T12:42:02.680Z,18.00
2023-05-10T12:43:03.610Z,17.00
2023-05-10T12:44:04.514Z,18.00
2023-05-10T12:45:05.372Z,17.10
2023-05-10T12:46:06.310Z,16.50
2023-05-10T12:47:07.283Z,17.70
2023-05-10T12:48:08.191Z,17.20
2023-05-10T12:49:10.103Z,19.00
2023-05-10T12:50:09.597Z,19.00
2023-05-10T12:51:10.493Z,18.90
2023-05-10T12:52:11.385Z,18.70
2023-05-10T12:53:12.296Z,21.40
2023-05-10T12:54:13.198Z,19.10
2023-05-10T12:55:15.001Z,21.20
2023-05-10T12:56:15.146Z,19.80
2023-05-10T12:57:16.408Z,22.70
2023-05-10T12:58:31.445Z,22.20
2023-05-10T12:59:18.127Z,21.10
2023-05-10T13:00:18.343Z,23.40
2023-05-10T13:01:18.945Z,25.20
2023-05-10T13:02:19.588Z,21.70
2023-05-10T13:03:20.059Z,20.20
2023-05-10T13:04:21.079Z,21.00
2023-05-10T13:05:21.522Z,22.30
2023-05-10T13:06:22.395Z,22.50
2023-05-10T13:07:23.420Z,22.90
2023-05-10T13:08:24.083Z,22.10
2023-05-10T13:09:25.027Z,21.40
2023-05-10T13:10:25.939Z,23.10
2023-05-10T13:11:26.935Z,20.90
2023-05-10T13:12:27.885Z,21.00
2023-05-10T13:13:28.763Z,22.60
2023-05-10T13:14:29.687Z,21.60
2023-05-10T13:15:30.614Z,21.20
2023-05-10T13:16:31.711Z,20.10
2023-05-10T13:17:34.157Z,19.00
2023-05-10T13:18:32.661Z,20.60
2023-05-10T13:19:33.571Z,18.10
2023-05-10T13:20:34.626Z,20.10
2023-05-10T13:21:35.092Z,21.70
2023-05-10T13:22:40.222Z,19.50
2023-05-10T13:23:36.624Z,20.30
2023-05-10T13:24:37.552Z,19.70
2023-05-10T13:25:38.518Z,20.70
2023-05-10T13:26:39.406Z,20.60
2023-05-10T13:27:40.332Z,20.30
2023-05-10T13:28:41.231Z,19.50
2023-05-10T13:29:44.762Z,19.80
2023-05-10T13:30:42.932Z,18.80
2023-05-10T13:31:43.965Z,19.00
2023-05-10T13:32:44.957Z,20.10
2023-05-10T13:33:45.442Z,18.60
2023-05-10T13:34:46.287Z,19.30
2023-05-10T13:35:46.764Z,19.50
2023-05-10T13:36:47.668Z,20.10
2023-05-10T13:37:48.587Z,20.30
2023-05-10T13:38:49.474Z,21.10
2023-05-10T13:39:50.508Z,19.10
2023-05-10T13:40:51.017Z,17.40
2023-05-10T13:41:52.679Z,17.20
2023-05-10T13:42:52.684Z,17.90
2023-05-10T13:43:53.628Z,16.60
2023-05-10T13:44:54.674Z,17.50
2023-05-10T13:45:55.494Z,18.40
2023-05-10T13:46:56.990Z,16.90
2023-05-10T13:47:57.077Z,17.90
2023-05-10T13:48:57.522Z,16.80
2023-05-10T13:49:58.499Z,18.50
2023-05-10T13:50:59.399Z,19.10
2023-05-10T13:52:00.342Z,21.80
2023-05-10T13:53:01.266Z,22.10
2023-05-10T13:54:02.196Z,23.10
2023-05-10T13:55:03.122Z,21.50
2023-05-10T13:56:04.056Z,21.40
2023-05-10T13:57:04.956Z,21.30
2023-05-10T13:58:05.921Z,20.30
2023-05-10T13:59:06.872Z,19.70
2023-05-10T14:00:07.773Z,20.20
2023-05-10T14:01:08.681Z,20.10
2023-05-10T14:02:09.658Z,18.30
2023-05-10T14:03:10.371Z,18.90
2023-05-10T14:04:10.895Z,19.60
2023-05-10T14:05:12.747Z,18.20
2023-05-10T14:06:12.716Z,19.70
2023-05-10T14:07:13.611Z,17.40
2023-05-10T14:08:14.641Z,20.20
2023-05-10T14:09:15.080Z,17.80
2023-05-10T14:10:16.016Z,17.20
2023-05-10T14:11:16.921Z,21.00
2023-05-10T14:12:17.829Z,18.30
2023-05-10T14:13:18.778Z,19.60
2023-05-10T14:14:19.732Z,19.80
2023-05-10T14:15:20.623Z,21.50
2023-05-10T14:16:21.678Z,20.00
2023-05-10T14:17:22.237Z,20.30
2023-05-10T14:18:22.793Z,21.60
2023-05-10T14:19:23.170Z,21.00
2023-05-10T14:20:24.108Z,19.30
2023-05-10T14:21:25.041Z,22.00
2023-05-10T14:24:14.871Z,21.40
2023-05-10T14:25:15.865Z,21.90
2023-05-10T14:26:15.982Z,20.90
2023-05-10T14:27:16.914Z,20.00
2023-05-10T14:28:17.921Z,20.70
2023-05-10T14:29:18.825Z,19.60
2023-05-10T14:30:19.804Z,20.10
2023-05-10T14:31:20.826Z,20.00
2023-05-10T14:32:21.314Z,21.70
2023-05-10T14:33:22.278Z,21.60
2023-05-10T14:34:23.287Z,20.20
2023-05-10T14:35:24.042Z,22.10
2023-05-10T14:36:24.689Z,22.00
2023-05-10T14:37:25.102Z,20.70
2023-05-10T14:38:26.001Z,22.00
2023-05-10T14:39:26.955Z,23.70
2023-05-10T14:40:27.898Z,18.80
2023-05-10T14:41:28.796Z,17.20
2023-05-10T14:42:29.726Z,16.90
2023-05-10T14:43:30.605Z,17.30
2023-05-10T14:44:31.511Z,17.40
2023-05-10T14:45:32.420Z,19.30
2023-05-10T14:46:33.377Z,19.20
2023-05-10T14:47:33.828Z,18.20
2023-05-10T14:48:34.698Z,21.10
2023-05-10T14:49:35.628Z,18.30
2023-05-10T14:50:37.565Z,124.00
2023-05-10T14:51:37.094Z,25.80
2023-05-10T14:52:37.997Z,41.40
2023-05-10T14:53:38.917Z,22.50
2023-05-10T14:54:39.857Z,18.40
2023-05-10T14:55:40.795Z,15.00
2023-05-10T14:56:41.686Z,16.70
2023-05-10T14:57:42.602Z,14.80
2023-05-10T14:58:43.519Z,15.70
2023-05-10T14:59:44.448Z,16.40
2023-05-10T15:00:45.228Z,15.90
2023-05-10T15:01:46.131Z,17.90
2023-05-10T15:02:47.115Z,16.80
2023-05-10T15:03:48.049Z,17.60
2023-05-10T15:04:48.732Z,17.60
2023-05-10T15:05:49.554Z,18.50
2023-05-10T15:06:50.474Z,15.20
2023-05-10T15:07:51.361Z,17.90
2023-05-10T15:08:52.342Z,18.20
2023-05-10T15:09:53.216Z,17.10
2023-05-10T15:10:54.101Z,16.70
2023-05-10T15:11:55.060Z,18.70
2023-05-10T15:12:55.995Z,15.70
2023-05-10T15:13:56.882Z,16.10
2023-05-10T15:14:57.755Z,18.90
2023-05-10T15:15:58.756Z,18.30
2023-05-10T15:16:59.179Z,19.90
2023-05-10T15:18:00.245Z,19.60
2023-05-10T15:19:00.757Z,21.10
2023-05-10T15:20:01.732Z,18.80
2023-05-10T15:21:02.676Z,19.70
2023-05-10T15:22:03.639Z,21.10
2023-05-10T15:23:04.533Z,20.90
2023-05-10T15:24:05.431Z,21.10
2023-05-10T15:25:06.296Z,19.30
2023-05-10T15:26:07.203Z,20.60
2023-05-10T15:27:08.209Z,19.30
2023-05-10T15:28:08.666Z,18.80
2023-05-10T15:29:09.537Z,19.70
2023-05-10T15:30:10.416Z,17.70
2023-05-10T15:31:12.173Z,18.00
2023-05-10T15:32:12.133Z,18.90
2023-05-10T15:33:13.099Z,17.80
2023-05-10T15:34:13.974Z,18.60
2023-05-10T15:35:15.024Z,57.20
2023-05-10T15:36:15.511Z,25.00
2023-05-10T15:37:16.408Z,20.60
2023-05-10T15:38:17.302Z,18.40
2023-05-10T15:39:18.188Z,20.60
2023-05-10T15:40:19.123Z,17.40
2023-05-10T15:41:20.054Z,16.80
2023-05-10T15:42:20.955Z,18.00
2023-05-10T15:43:21.920Z,18.50
2023-05-10T15:44:22.839Z,19.80
2023-05-10T15:45:23.820Z,20.70
2023-05-10T15:46:24.875Z,22.70
2023-05-10T15:47:25.243Z,21.40
2023-05-10T15:48:26.139Z,20.10
2023-05-10T15:49:27.015Z,22.30
2023-05-10T15:50:27.978Z,20.20
2023-05-10T15:51:28.864Z,21.70
2023-05-10T15:52:29.778Z,22.10
2023-05-10T15:53:30.673Z,20.80
2023-05-10T15:54:31.626Z,22.30